sensor_id;sensor_type;location;lat;lon;timestamp;temperature;humidity
67555;HTU21D;54385;53.516;49.456;2023-06-14T00:01:07;16.66;46.92
67555;HTU21D;54385;53.516;49.456;2023-06-14T00:03:35;16.60;47.55
67555;HTU21D;54385;53.516;49.456;2023-06-14T00:06:01;16.51;47.36
67555;HTU21D;54385;53.516;49.456;2023-06-14T00:08:28;16.51;48.10
67555;HTU21D;54385;53.516;49.456;2023-06-14T00:10:55;16.49;47.61
67555;HTU21D;54385;53.516;49.456;2023-06-14T00:13:23;16.51;47.22
67555;HTU21D;54385;53.516;49.456;2023-06-14T00:15:49;16.54;47.19
67555;HTU21D;54385;53.516;49.456;2023-06-14T00:18:15;16.56;46.83
67555;HTU21D;54385;53.516;49.456;2023-06-14T00:20:42;16.50;47.31
67555;HTU21D;54385;53.516;49.456;2023-06-14T00:23:09;16.50;47.60
67555;HTU21D;54385;53.516;49.456;2023-06-14T00:25:35;16.45;47.84
67555;HTU21D;54385;53.516;49.456;2023-06-14T00:28:02;16.45;48.31
67555;HTU21D;54385;53.516;49.456;2023-06-14T00:30:28;16.45;48.64
67555;HTU21D;54385;53.516;49.456;2023-06-14T00:32:56;16.49;48.82
67555;HTU21D;54385;53.516;49.456;2023-06-14T00:35:23;16.51;48.20
67555;HTU21D;54385;53.516;49.456;2023-06-14T00:37:50;16.49;48.47
67555;HTU21D;54385;53.516;49.456;2023-06-14T00:40:16;16.47;48.59
67555;HTU21D;54385;53.516;49.456;2023-06-14T00:42:42;16.50;48.44
67555;HTU21D;54385;53.516;49.456;2023-06-14T00:45:09;16.54;49.24
67555;HTU21D;54385;53.516;49.456;2023-06-14T00:47:36;16.55;50.89
67555;HTU21D;54385;53.516;49.456;2023-06-14T00:50:06;16.54;50.82
67555;HTU21D;54385;53.516;49.456;2023-06-14T00:52:33;16.45;50.92
67555;HTU21D;54385;53.516;49.456;2023-06-14T00:55:00;16.37;52.53
67555;HTU21D;54385;53.516;49.456;2023-06-14T00:57:27;16.36;52.88
67555;HTU21D;54385;53.516;49.456;2023-06-14T00:59:55;16.34;53.13
67555;HTU21D;54385;53.516;49.456;2023-06-14T01:02:22;16.32;53.30
67555;HTU21D;54385;53.516;49.456;2023-06-14T01:04:49;16.35;53.33
67555;HTU21D;54385;53.516;49.456;2023-06-14T01:07:33;16.31;54.01
67555;HTU21D;54385;53.516;49.456;2023-06-14T01:15:31;16.20;53.06
67555;HTU21D;54385;53.516;49.456;2023-06-14T01:17:58;16.20;52.38
67555;HTU21D;54385;53.516;49.456;2023-06-14T01:20:31;16.22;53.17
67555;HTU21D;54385;53.516;49.456;2023-06-14T01:22:58;16.20;54.40
67555;HTU21D;54385;53.516;49.456;2023-06-14T01:25:25;16.18;55.04
67555;HTU21D;54385;53.516;49.456;2023-06-14T01:28:06;16.20;54.74
67555;HTU21D;54385;53.516;49.456;2023-06-14T01:30:41;16.24;54.61
67555;HTU21D;54385;53.516;49.456;2023-06-14T01:33:15;16.33;53.61
67555;HTU21D;54385;53.516;49.456;2023-06-14T01:35:45;16.39;53.01
67555;HTU21D;54385;53.516;49.456;2023-06-14T01:38:13;16.42;52.23
67555;HTU21D;54385;53.516;49.456;2023-06-14T01:40:43;16.46;51.89
67555;HTU21D;54385;53.516;49.456;2023-06-14T01:43:12;16.42;51.03
67555;HTU21D;54385;53.516;49.456;2023-06-14T01:45:43;16.48;51.46
67555;HTU21D;54385;53.516;49.456;2023-06-14T01:48:10;16.54;50.98
67555;HTU21D;54385;53.516;49.456;2023-06-14T01:50:37;16.64;50.95
67555;HTU21D;54385;53.516;49.456;2023-06-14T01:53:07;16.72;51.12
67555;HTU21D;54385;53.516;49.456;2023-06-14T01:55:34;16.81;50.46
67555;HTU21D;54385;53.516;49.456;2023-06-14T01:58:04;16.85;50.31
67555;HTU21D;54385;53.516;49.456;2023-06-14T02:00:30;16.91;50.27
67555;HTU21D;54385;53.516;49.456;2023-06-14T02:02:57;16.99;50.44
67555;HTU21D;54385;53.516;49.456;2023-06-14T02:05:24;17.06;50.35
67555;HTU21D;54385;53.516;49.456;2023-06-14T02:07:50;17.08;50.25
67555;HTU21D;54385;53.516;49.456;2023-06-14T02:10:18;17.10;50.31
67555;HTU21D;54385;53.516;49.456;2023-06-14T02:12:45;17.09;50.04
67555;HTU21D;54385;53.516;49.456;2023-06-14T02:15:11;17.04;50.68
67555;HTU21D;54385;53.516;49.456;2023-06-14T02:17:48;17.03;50.56
67555;HTU21D;54385;53.516;49.456;2023-06-14T02:20:18;17.04;50.35
67555;HTU21D;54385;53.516;49.456;2023-06-14T02:22:45;17.06;50.67
67555;HTU21D;54385;53.516;49.456;2023-06-14T02:25:11;17.07;50.60
67555;HTU21D;54385;53.516;49.456;2023-06-14T02:27:37;17.06;51.01
67555;HTU21D;54385;53.516;49.456;2023-06-14T02:30:04;17.06;51.12
67555;HTU21D;54385;53.516;49.456;2023-06-14T02:32:31;17.05;51.14
67555;HTU21D;54385;53.516;49.456;2023-06-14T02:35:00;17.03;50.96
67555;HTU21D;54385;53.516;49.456;2023-06-14T02:37:26;17.06;51.15
67555;HTU21D;54385;53.516;49.456;2023-06-14T02:39:52;17.07;50.85
67555;HTU21D;54385;53.516;49.456;2023-06-14T02:42:19;17.09;51.27
67555;HTU21D;54385;53.516;49.456;2023-06-14T02:44:46;17.11;51.24
67555;HTU21D;54385;53.516;49.456;2023-06-14T02:47:18;17.11;51.31
67555;HTU21D;54385;53.516;49.456;2023-06-14T02:49:44;17.17;51.14
67555;HTU21D;54385;53.516;49.456;2023-06-14T02:52:12;17.22;50.92
67555;HTU21D;54385;53.516;49.456;2023-06-14T02:54:39;17.30;50.92
67555;HTU21D;54385;53.516;49.456;2023-06-14T02:57:06;17.36;50.72
67555;HTU21D;54385;53.516;49.456;2023-06-14T02:59:36;17.35;50.56
67555;HTU21D;54385;53.516;49.456;2023-06-14T03:02:02;17.46;50.64
67555;HTU21D;54385;53.516;49.456;2023-06-14T03:04:29;17.53;50.42
67555;HTU21D;54385;53.516;49.456;2023-06-14T03:06:58;17.54;50.69
67555;HTU21D;54385;53.516;49.456;2023-06-14T03:09:25;17.56;50.79
67555;HTU21D;54385;53.516;49.456;2023-06-14T03:11:52;17.62;50.62
67555;HTU21D;54385;53.516;49.456;2023-06-14T03:14:18;17.66;49.93
67555;HTU21D;54385;53.516;49.456;2023-06-14T03:16:45;17.60;50.40
67555;HTU21D;54385;53.516;49.456;2023-06-14T03:19:11;17.68;49.98
67555;HTU21D;54385;53.516;49.456;2023-06-14T03:21:37;17.61;50.43
67555;HTU21D;54385;53.516;49.456;2023-06-14T03:24:17;17.59;52.12
67555;HTU21D;54385;53.516;49.456;2023-06-14T03:27:06;17.55;53.49
67555;HTU21D;54385;53.516;49.456;2023-06-14T03:29:39;17.58;54.08
67555;HTU21D;54385;53.516;49.456;2023-06-14T03:32:06;17.60;53.88
67555;HTU21D;54385;53.516;49.456;2023-06-14T03:34:32;17.62;55.26
67555;HTU21D;54385;53.516;49.456;2023-06-14T03:36:59;17.69;56.36
67555;HTU21D;54385;53.516;49.456;2023-06-14T03:39:25;17.76;55.72
67555;HTU21D;54385;53.516;49.456;2023-06-14T03:41:51;17.85;54.19
67555;HTU21D;54385;53.516;49.456;2023-06-14T03:44:18;17.93;54.07
67555;HTU21D;54385;53.516;49.456;2023-06-14T03:46:45;18.00;53.18
67555;HTU21D;54385;53.516;49.456;2023-06-14T03:49:13;18.08;52.45
67555;HTU21D;54385;53.516;49.456;2023-06-14T03:51:40;18.08;51.99
67555;HTU21D;54385;53.516;49.456;2023-06-14T03:54:13;18.03;52.01
67555;HTU21D;54385;53.516;49.456;2023-06-14T03:56:44;17.99;51.82
67555;HTU21D;54385;53.516;49.456;2023-06-14T03:59:11;17.95;51.71
67555;HTU21D;54385;53.516;49.456;2023-06-14T04:01:38;17.92;52.02
67555;HTU21D;54385;53.516;49.456;2023-06-14T04:04:10;17.91;51.83
67555;HTU21D;54385;53.516;49.456;2023-06-14T04:06:37;17.92;52.04
67555;HTU21D;54385;53.516;49.456;2023-06-14T04:09:04;17.82;53.14
67555;HTU21D;54385;53.516;49.456;2023-06-14T04:11:31;17.87;54.24
67555;HTU21D;54385;53.516;49.456;2023-06-14T04:14:02;17.91;53.53
67555;HTU21D;54385;53.516;49.456;2023-06-14T04:16:29;17.91;54.10
67555;HTU21D;54385;53.516;49.456;2023-06-14T04:18:55;17.87;54.25
67555;HTU21D;54385;53.516;49.456;2023-06-14T04:21:24;17.76;55.09
67555;HTU21D;54385;53.516;49.456;2023-06-14T04:23:50;17.73;55.42
67555;HTU21D;54385;53.516;49.456;2023-06-14T04:26:19;17.67;57.41
67555;HTU21D;54385;53.516;49.456;2023-06-14T04:28:46;17.61;56.90
67555;HTU21D;54385;53.516;49.456;2023-06-14T04:31:13;17.63;57.45
67555;HTU21D;54385;53.516;49.456;2023-06-14T04:33:41;17.62;57.03
67555;HTU21D;54385;53.516;49.456;2023-06-14T04:36:33;17.65;58.61
67555;HTU21D;54385;53.516;49.456;2023-06-14T04:39:19;17.73;57.64
67555;HTU21D;54385;53.516;49.456;2023-06-14T04:41:48;17.79;58.55
67555;HTU21D;54385;53.516;49.456;2023-06-14T04:44:34;17.82;58.85
67555;HTU21D;54385;53.516;49.456;2023-06-14T04:47:11;17.77;57.38
67555;HTU21D;54385;53.516;49.456;2023-06-14T04:49:48;17.70;58.20
67555;HTU21D;54385;53.516;49.456;2023-06-14T04:52:19;17.77;58.47
67555;HTU21D;54385;53.516;49.456;2023-06-14T04:54:47;17.82;58.11
67555;HTU21D;54385;53.516;49.456;2023-06-14T04:57:14;17.89;56.83
67555;HTU21D;54385;53.516;49.456;2023-06-14T04:59:46;17.91;56.00
67555;HTU21D;54385;53.516;49.456;2023-06-14T05:02:12;17.88;55.97
67555;HTU21D;54385;53.516;49.456;2023-06-14T05:04:39;17.99;57.07
67555;HTU21D;54385;53.516;49.456;2023-06-14T05:07:09;18.08;57.31
67555;HTU21D;54385;53.516;49.456;2023-06-14T05:09:36;18.00;56.93
67555;HTU21D;54385;53.516;49.456;2023-06-14T05:12:06;17.97;56.84
67555;HTU21D;54385;53.516;49.456;2023-06-14T05:14:36;17.95;55.99
67555;HTU21D;54385;53.516;49.456;2023-06-14T05:17:02;17.82;56.38
67555;HTU21D;54385;53.516;49.456;2023-06-14T05:19:29;17.80;56.83
67555;HTU21D;54385;53.516;49.456;2023-06-14T05:21:55;17.89;56.31
67555;HTU21D;54385;53.516;49.456;2023-06-14T05:24:22;17.97;57.52
67555;HTU21D;54385;53.516;49.456;2023-06-14T05:26:48;17.93;59.16
67555;HTU21D;54385;53.516;49.456;2023-06-14T05:29:15;17.85;58.04
67555;HTU21D;54385;53.516;49.456;2023-06-14T05:31:42;17.95;59.61
67555;HTU21D;54385;53.516;49.456;2023-06-14T05:34:08;18.06;59.51
67555;HTU21D;54385;53.516;49.456;2023-06-14T05:36:35;18.15;58.91
67555;HTU21D;54385;53.516;49.456;2023-06-14T05:39:03;18.22;58.03
67555;HTU21D;54385;53.516;49.456;2023-06-14T05:41:30;18.19;57.54
67555;HTU21D;54385;53.516;49.456;2023-06-14T05:43:57;18.24;58.14
67555;HTU21D;54385;53.516;49.456;2023-06-14T05:46:24;18.29;58.17
67555;HTU21D;54385;53.516;49.456;2023-06-14T05:48:52;18.29;57.37
67555;HTU21D;54385;53.516;49.456;2023-06-14T05:51:19;18.38;57.64
67555;HTU21D;54385;53.516;49.456;2023-06-14T05:53:46;18.49;57.80
67555;HTU21D;54385;53.516;49.456;2023-06-14T05:56:16;18.59;57.96
67555;HTU21D;54385;53.516;49.456;2023-06-14T05:58:46;18.62;56.57
67555;HTU21D;54385;53.516;49.456;2023-06-14T06:01:13;18.68;56.87
67555;HTU21D;54385;53.516;49.456;2023-06-14T06:03:40;18.76;56.42
67555;HTU21D;54385;53.516;49.456;2023-06-14T06:06:07;18.83;55.81
67555;HTU21D;54385;53.516;49.456;2023-06-14T06:08:34;18.95;54.96
67555;HTU21D;54385;53.516;49.456;2023-06-14T06:11:01;19.15;55.38
67555;HTU21D;54385;53.516;49.456;2023-06-14T06:13:28;19.40;54.04
67555;HTU21D;54385;53.516;49.456;2023-06-14T06:15:55;19.59;53.56
67555;HTU21D;54385;53.516;49.456;2023-06-14T06:18:22;19.82;53.21
67555;HTU21D;54385;53.516;49.456;2023-06-14T06:20:48;19.88;52.12
67555;HTU21D;54385;53.516;49.456;2023-06-14T06:23:15;20.40;50.47
67555;HTU21D;54385;53.516;49.456;2023-06-14T06:25:42;20.36;50.27
67555;HTU21D;54385;53.516;49.456;2023-06-14T06:28:09;20.79;49.14
67555;HTU21D;54385;53.516;49.456;2023-06-14T06:30:44;21.29;48.14
67555;HTU21D;54385;53.516;49.456;2023-06-14T06:33:13;21.81;46.74
67555;HTU21D;54385;53.516;49.456;2023-06-14T06:35:52;22.11;45.36
67555;HTU21D;54385;53.516;49.456;2023-06-14T06:38:50;22.47;44.77
67555;HTU21D;54385;53.516;49.456;2023-06-14T06:41:33;22.66;44.20
67555;HTU21D;54385;53.516;49.456;2023-06-14T06:44:31;22.61;44.66
67555;HTU21D;54385;53.516;49.456;2023-06-14T06:47:34;22.53;44.06
67555;HTU21D;54385;53.516;49.456;2023-06-14T06:50:06;22.47;44.45
67555;HTU21D;54385;53.516;49.456;2023-06-14T06:52:59;22.37;45.43
67555;HTU21D;54385;53.516;49.456;2023-06-14T06:55:58;22.64;45.14
67555;HTU21D;54385;53.516;49.456;2023-06-14T06:58:35;23.02;44.09
67555;HTU21D;54385;53.516;49.456;2023-06-14T07:05:15;23.72;41.61
67555;HTU21D;54385;53.516;49.456;2023-06-14T07:08:24;23.89;40.55
67555;HTU21D;54385;53.516;49.456;2023-06-14T07:15:40;24.35;39.81
67555;HTU21D;54385;53.516;49.456;2023-06-14T07:18:32;24.53;39.55
67555;HTU21D;54385;53.516;49.456;2023-06-14T07:21:24;24.59;39.33
67555;HTU21D;54385;53.516;49.456;2023-06-14T07:36:57;24.73;38.89
67555;HTU21D;54385;53.516;49.456;2023-06-14T07:40:23;24.90;37.89
67555;HTU21D;54385;53.516;49.456;2023-06-14T07:42:51;24.74;38.81
67555;HTU21D;54385;53.516;49.456;2023-06-14T07:45:23;24.65;39.29
67555;HTU21D;54385;53.516;49.456;2023-06-14T07:48:04;24.06;39.80
67555;HTU21D;54385;53.516;49.456;2023-06-14T07:51:22;23.45;40.73
67555;HTU21D;54385;53.516;49.456;2023-06-14T07:53:49;23.18;40.63
67555;HTU21D;54385;53.516;49.456;2023-06-14T07:56:22;23.16;41.37
67555;HTU21D;54385;53.516;49.456;2023-06-14T08:10:37;24.95;38.10
67555;HTU21D;54385;53.516;49.456;2023-06-14T08:30:20;23.56;39.94
67555;HTU21D;54385;53.516;49.456;2023-06-14T08:33:38;23.51;40.43
67555;HTU21D;54385;53.516;49.456;2023-06-14T08:36:56;23.77;39.56
67555;HTU21D;54385;53.516;49.456;2023-06-14T08:39:35;23.88;39.68
67555;HTU21D;54385;53.516;49.456;2023-06-14T08:42:33;23.85;39.16
67555;HTU21D;54385;53.516;49.456;2023-06-14T08:45:10;23.68;39.94
67555;HTU21D;54385;53.516;49.456;2023-06-14T08:47:41;23.65;39.42
67555;HTU21D;54385;53.516;49.456;2023-06-14T08:50:42;23.89;39.30
67555;HTU21D;54385;53.516;49.456;2023-06-14T08:58:05;23.83;40.99
67555;HTU21D;54385;53.516;49.456;2023-06-14T09:00:48;24.16;39.54
67555;HTU21D;54385;53.516;49.456;2023-06-14T09:03:25;24.75;38.78
67555;HTU21D;54385;53.516;49.456;2023-06-14T09:06:05;25.24;36.94
67555;HTU21D;54385;53.516;49.456;2023-06-14T09:08:45;25.28;37.11
67555;HTU21D;54385;53.516;49.456;2023-06-14T09:12:38;26.10;35.88
67555;HTU21D;54385;53.516;49.456;2023-06-14T09:15:13;26.57;35.22
67555;HTU21D;54385;53.516;49.456;2023-06-14T09:17:43;26.87;34.60
67555;HTU21D;54385;53.516;49.456;2023-06-14T09:20:53;26.39;34.85
67555;HTU21D;54385;53.516;49.456;2023-06-14T09:23:26;25.60;36.65
67555;HTU21D;54385;53.516;49.456;2023-06-14T09:25:55;24.49;38.49
67555;HTU21D;54385;53.516;49.456;2023-06-14T09:28:52;23.80;39.94
67555;HTU21D;54385;53.516;49.456;2023-06-14T09:31:30;23.45;41.27
67555;HTU21D;54385;53.516;49.456;2023-06-14T09:34:06;23.58;40.68
67555;HTU21D;54385;53.516;49.456;2023-06-14T09:36:42;23.68;40.71
67555;HTU21D;54385;53.516;49.456;2023-06-14T09:39:11;23.80;40.74
67555;HTU21D;54385;53.516;49.456;2023-06-14T09:41:52;24.04;40.13
67555;HTU21D;54385;53.516;49.456;2023-06-14T09:44:36;23.88;40.50
67555;HTU21D;54385;53.516;49.456;2023-06-14T09:47:19;23.70;40.79
67555;HTU21D;54385;53.516;49.456;2023-06-14T09:56:56;23.21;42.10
67555;HTU21D;54385;53.516;49.456;2023-06-14T10:00:08;22.46;44.95
67555;HTU21D;54385;53.516;49.456;2023-06-14T10:24:54;22.55;49.68
67555;HTU21D;54385;53.516;49.456;2023-06-14T10:27:21;22.57;49.88
67555;HTU21D;54385;53.516;49.456;2023-06-14T10:30:05;22.67;49.87
67555;HTU21D;54385;53.516;49.456;2023-06-14T10:33:03;22.76;49.18
67555;HTU21D;54385;53.516;49.456;2023-06-14T10:35:36;22.70;48.99
67555;HTU21D;54385;53.516;49.456;2023-06-14T10:38:13;22.60;45.95
67555;HTU21D;54385;53.516;49.456;2023-06-14T10:40:57;22.64;47.88
67555;HTU21D;54385;53.516;49.456;2023-06-14T10:43:35;22.84;47.69
67555;HTU21D;54385;53.516;49.456;2023-06-14T10:46:19;22.83;48.47
67555;HTU21D;54385;53.516;49.456;2023-06-14T10:48:58;22.80;46.51
67555;HTU21D;54385;53.516;49.456;2023-06-14T10:51:45;22.76;46.65
67555;HTU21D;54385;53.516;49.456;2023-06-14T10:54:16;22.91;46.43
67555;HTU21D;54385;53.516;49.456;2023-06-14T10:56:53;23.08;45.86
67555;HTU21D;54385;53.516;49.456;2023-06-14T10:59:42;23.27;45.50
67555;HTU21D;54385;53.516;49.456;2023-06-14T11:02:56;23.37;43.72
67555;HTU21D;54385;53.516;49.456;2023-06-14T11:05:50;23.45;43.05
67555;HTU21D;54385;53.516;49.456;2023-06-14T11:11:18;24.04;42.32
67555;HTU21D;54385;53.516;49.456;2023-06-14T11:13:47;24.43;41.31
67555;HTU21D;54385;53.516;49.456;2023-06-14T11:16:26;25.22;39.81
67555;HTU21D;54385;53.516;49.456;2023-06-14T11:19:01;25.64;39.27
67555;HTU21D;54385;53.516;49.456;2023-06-14T11:21:31;26.03;38.38
67555;HTU21D;54385;53.516;49.456;2023-06-14T11:24:02;26.34;37.57
67555;HTU21D;54385;53.516;49.456;2023-06-14T11:26:30;26.72;36.89
67555;HTU21D;54385;53.516;49.456;2023-06-14T11:29:20;27.19;35.62
67555;HTU21D;54385;53.516;49.456;2023-06-14T11:31:47;27.63;35.08
67555;HTU21D;54385;53.516;49.456;2023-06-14T11:34:14;27.67;34.54
67555;HTU21D;54385;53.516;49.456;2023-06-14T11:36:42;27.99;34.21
67555;HTU21D;54385;53.516;49.456;2023-06-14T11:39:12;27.45;34.73
67555;HTU21D;54385;53.516;49.456;2023-06-14T11:41:50;26.99;36.04
67555;HTU21D;54385;53.516;49.456;2023-06-14T11:44:29;26.51;37.31
67555;HTU21D;54385;53.516;49.456;2023-06-14T11:47:05;26.35;37.57
67555;HTU21D;54385;53.516;49.456;2023-06-14T11:49:41;26.38;37.85
67555;HTU21D;54385;53.516;49.456;2023-06-14T11:52:16;26.25;37.97
67555;HTU21D;54385;53.516;49.456;2023-06-14T11:55:21;26.05;38.14
67555;HTU21D;54385;53.516;49.456;2023-06-14T11:58:15;26.06;37.98
67555;HTU21D;54385;53.516;49.456;2023-06-14T12:00:54;26.28;37.95
67555;HTU21D;54385;53.516;49.456;2023-06-14T12:03:59;26.58;38.08
67555;HTU21D;54385;53.516;49.456;2023-06-14T12:06:38;26.73;37.13
67555;HTU21D;54385;53.516;49.456;2023-06-14T12:09:27;26.86;36.41
67555;HTU21D;54385;53.516;49.456;2023-06-14T12:12:06;27.27;36.73
67555;HTU21D;54385;53.516;49.456;2023-06-14T12:14:35;27.14;36.18
67555;HTU21D;54385;53.516;49.456;2023-06-14T12:17:07;27.20;36.26
67555;HTU21D;54385;53.516;49.456;2023-06-14T12:19:43;26.52;36.27
67555;HTU21D;54385;53.516;49.456;2023-06-14T12:22:25;25.88;37.72
67555;HTU21D;54385;53.516;49.456;2023-06-14T12:25:08;25.56;38.77
67555;HTU21D;54385;53.516;49.456;2023-06-14T12:27:46;25.24;39.65
67555;HTU21D;54385;53.516;49.456;2023-06-14T12:30:38;25.16;40.17
67555;HTU21D;54385;53.516;49.456;2023-06-14T12:37:22;24.79;41.14
67555;HTU21D;54385;53.516;49.456;2023-06-14T12:40:03;24.89;41.09
67555;HTU21D;54385;53.516;49.456;2023-06-14T12:42:48;25.18;40.55
67555;HTU21D;54385;53.516;49.456;2023-06-14T12:45:16;25.46;39.18
67555;HTU21D;54385;53.516;49.456;2023-06-14T12:48:03;25.65;39.01
67555;HTU21D;54385;53.516;49.456;2023-06-14T12:50:37;25.84;39.06
67555;HTU21D;54385;53.516;49.456;2023-06-14T12:53:10;25.69;39.06
67555;HTU21D;54385;53.516;49.456;2023-06-14T12:55:39;25.52;39.71
67555;HTU21D;54385;53.516;49.456;2023-06-14T12:58:08;25.17;39.99
67555;HTU21D;54385;53.516;49.456;2023-06-14T13:00:46;25.31;39.60
67555;HTU21D;54385;53.516;49.456;2023-06-14T13:03:32;25.39;38.92
67555;HTU21D;54385;53.516;49.456;2023-06-14T13:06:09;25.32;39.14
67555;HTU21D;54385;53.516;49.456;2023-06-14T13:09:04;25.39;39.39
67555;HTU21D;54385;53.516;49.456;2023-06-14T13:11:49;25.33;39.56
67555;HTU21D;54385;53.516;49.456;2023-06-14T13:14:45;25.25;39.79
67555;HTU21D;54385;53.516;49.456;2023-06-14T13:17:15;25.14;40.32
67555;HTU21D;54385;53.516;49.456;2023-06-14T13:19:45;24.89;40.49
67555;HTU21D;54385;53.516;49.456;2023-06-14T13:22:27;24.57;41.68
67555;HTU21D;54385;53.516;49.456;2023-06-14T13:25:13;24.91;41.29
67555;HTU21D;54385;53.516;49.456;2023-06-14T13:27:48;25.00;40.43
67555;HTU21D;54385;53.516;49.456;2023-06-14T13:30:18;24.62;41.58
67555;HTU21D;54385;53.516;49.456;2023-06-14T13:32:48;24.61;41.26
67555;HTU21D;54385;53.516;49.456;2023-06-14T13:35:22;24.75;41.26
67555;HTU21D;54385;53.516;49.456;2023-06-14T13:38:16;24.62;41.26
67555;HTU21D;54385;53.516;49.456;2023-06-14T13:40:50;24.10;42.81
67555;HTU21D;54385;53.516;49.456;2023-06-14T13:43:22;24.24;42.49
67555;HTU21D;54385;53.516;49.456;2023-06-14T13:45:56;24.25;42.57
67555;HTU21D;54385;53.516;49.456;2023-06-14T13:48:42;24.25;42.51
67555;HTU21D;54385;53.516;49.456;2023-06-14T13:51:13;24.35;42.23
67555;HTU21D;54385;53.516;49.456;2023-06-14T13:53:46;24.48;42.16
67555;HTU21D;54385;53.516;49.456;2023-06-14T13:56:23;24.47;42.45
67555;HTU21D;54385;53.516;49.456;2023-06-14T13:58:51;24.64;42.00
67555;HTU21D;54385;53.516;49.456;2023-06-14T14:01:22;24.80;42.13
67555;HTU21D;54385;53.516;49.456;2023-06-14T14:03:50;25.02;41.50
67555;HTU21D;54385;53.516;49.456;2023-06-14T14:06:20;24.98;41.39
67555;HTU21D;54385;53.516;49.456;2023-06-14T14:08:50;25.16;41.39
67555;HTU21D;54385;53.516;49.456;2023-06-14T14:11:20;25.36;41.23
67555;HTU21D;54385;53.516;49.456;2023-06-14T14:13:48;25.29;40.96
67555;HTU21D;54385;53.516;49.456;2023-06-14T14:16:42;25.15;41.08
67555;HTU21D;54385;53.516;49.456;2023-06-14T14:19:11;24.80;42.62
67555;HTU21D;54385;53.516;49.456;2023-06-14T14:21:46;24.70;42.07
67555;HTU21D;54385;53.516;49.456;2023-06-14T14:24:17;24.74;42.03
67555;HTU21D;54385;53.516;49.456;2023-06-14T14:26:44;24.53;42.55
67555;HTU21D;54385;53.516;49.456;2023-06-14T14:29:15;24.55;42.38
67555;HTU21D;54385;53.516;49.456;2023-06-14T14:31:48;24.58;42.42
67555;HTU21D;54385;53.516;49.456;2023-06-14T14:34:18;24.84;41.92
67555;HTU21D;54385;53.516;49.456;2023-06-14T14:36:54;24.77;41.91
67555;HTU21D;54385;53.516;49.456;2023-06-14T14:39:24;24.73;42.13
67555;HTU21D;54385;53.516;49.456;2023-06-14T14:41:57;24.85;42.16
67555;HTU21D;54385;53.516;49.456;2023-06-14T14:44:27;24.89;41.93
67555;HTU21D;54385;53.516;49.456;2023-06-14T14:47:00;24.78;43.02
67555;HTU21D;54385;53.516;49.456;2023-06-14T14:49:28;24.72;42.69
67555;HTU21D;54385;53.516;49.456;2023-06-14T14:51:58;24.70;43.26
67555;HTU21D;54385;53.516;49.456;2023-06-14T14:54:26;24.64;42.93
67555;HTU21D;54385;53.516;49.456;2023-06-14T14:56:55;24.38;43.39
67555;HTU21D;54385;53.516;49.456;2023-06-14T14:59:22;23.80;45.71
67555;HTU21D;54385;53.516;49.456;2023-06-14T15:01:57;23.73;45.70
67555;HTU21D;54385;53.516;49.456;2023-06-14T15:04:47;23.76;46.03
67555;HTU21D;54385;53.516;49.456;2023-06-14T15:07:15;23.68;45.71
67555;HTU21D;54385;53.516;49.456;2023-06-14T15:09:47;23.59;45.99
67555;HTU21D;54385;53.516;49.456;2023-06-14T15:12:18;23.45;46.60
67555;HTU21D;54385;53.516;49.456;2023-06-14T15:14:52;23.47;46.70
67555;HTU21D;54385;53.516;49.456;2023-06-14T15:17:21;23.38;46.44
67555;HTU21D;54385;53.516;49.456;2023-06-14T15:19:50;23.17;46.87
67555;HTU21D;54385;53.516;49.456;2023-06-14T15:22:17;22.82;47.76
67555;HTU21D;54385;53.516;49.456;2023-06-14T15:24:44;22.80;47.64
67555;HTU21D;54385;53.516;49.456;2023-06-14T15:27:16;22.78;48.01
67555;HTU21D;54385;53.516;49.456;2023-06-14T15:29:44;22.71;48.11
67555;HTU21D;54385;53.516;49.456;2023-06-14T15:32:11;22.65;48.30
67555;HTU21D;54385;53.516;49.456;2023-06-14T15:34:40;22.60;48.45
67555;HTU21D;54385;53.516;49.456;2023-06-14T15:37:07;22.61;48.37
67555;HTU21D;54385;53.516;49.456;2023-06-14T15:39:36;22.54;48.93
67555;HTU21D;54385;53.516;49.456;2023-06-14T15:42:10;22.36;49.54
67555;HTU21D;54385;53.516;49.456;2023-06-14T15:44:40;22.32;49.66
67555;HTU21D;54385;53.516;49.456;2023-06-14T15:47:18;22.40;49.43
67555;HTU21D;54385;53.516;49.456;2023-06-14T15:49:45;22.33;49.45
67555;HTU21D;54385;53.516;49.456;2023-06-14T15:52:11;22.24;49.34
67555;HTU21D;54385;53.516;49.456;2023-06-14T15:54:40;22.19;49.37
67555;HTU21D;54385;53.516;49.456;2023-06-14T15:57:07;22.17;49.37
67555;HTU21D;54385;53.516;49.456;2023-06-14T15:59:40;22.14;49.34
67555;HTU21D;54385;53.516;49.456;2023-06-14T16:02:07;22.12;49.27
67555;HTU21D;54385;53.516;49.456;2023-06-14T16:04:34;22.14;49.47
67555;HTU21D;54385;53.516;49.456;2023-06-14T16:07:03;22.20;49.65
67555;HTU21D;54385;53.516;49.456;2023-06-14T16:09:41;22.12;49.34
67555;HTU21D;54385;53.516;49.456;2023-06-14T16:12:17;21.95;50.06
67555;HTU21D;54385;53.516;49.456;2023-06-14T16:14:50;21.84;50.22
67555;HTU21D;54385;53.516;49.456;2023-06-14T16:17:29;21.73;50.73
67555;HTU21D;54385;53.516;49.456;2023-06-14T16:19:59;21.64;51.20
67555;HTU21D;54385;53.516;49.456;2023-06-14T16:22:47;21.53;51.79
67555;HTU21D;54385;53.516;49.456;2023-06-14T16:25:16;21.43;51.70
67555;HTU21D;54385;53.516;49.456;2023-06-14T16:28:24;21.38;52.11
67555;HTU21D;54385;53.516;49.456;2023-06-14T16:31:02;21.39;52.21
67555;HTU21D;54385;53.516;49.456;2023-06-14T16:33:32;21.44;52.16
67555;HTU21D;54385;53.516;49.456;2023-06-14T16:36:05;21.36;52.21
67555;HTU21D;54385;53.516;49.456;2023-06-14T16:38:32;21.27;52.42
67555;HTU21D;54385;53.516;49.456;2023-06-14T16:41:02;21.18;52.65
67555;HTU21D;54385;53.516;49.456;2023-06-14T16:43:32;21.05;53.17
67555;HTU21D;54385;53.516;49.456;2023-06-14T16:46:00;20.95;53.69
67555;HTU21D;54385;53.516;49.456;2023-06-14T16:48:30;20.86;54.24
67555;HTU21D;54385;53.516;49.456;2023-06-14T16:50:57;20.79;54.55
67555;HTU21D;54385;53.516;49.456;2023-06-14T16:53:27;20.79;54.69
67555;HTU21D;54385;53.516;49.456;2023-06-14T16:56:06;20.76;54.81
67555;HTU21D;54385;53.516;49.456;2023-06-14T16:58:52;20.78;55.18
67555;HTU21D;54385;53.516;49.456;2023-06-14T17:01:26;20.74;55.19
67555;HTU21D;54385;53.516;49.456;2023-06-14T17:04:09;20.65;55.36
67555;HTU21D;54385;53.516;49.456;2023-06-14T17:06:40;20.63;55.53
67555;HTU21D;54385;53.516;49.456;2023-06-14T17:09:23;20.61;55.78
67555;HTU21D;54385;53.516;49.456;2023-06-14T17:11:51;20.56;55.71
67555;HTU21D;54385;53.516;49.456;2023-06-14T17:14:19;20.54;55.78
67555;HTU21D;54385;53.516;49.456;2023-06-14T17:16:49;20.44;56.00
67555;HTU21D;54385;53.516;49.456;2023-06-14T17:19:20;20.37;56.19
67555;HTU21D;54385;53.516;49.456;2023-06-14T17:21:47;20.32;56.08